createdAt,value
2019-03-20T07:27:20.551Z,1025.09
2019-03-20T07:28:20.495Z,1025.05
2019-03-20T07:29:20.486Z,1025.03
2019-03-20T07:30:21.161Z,1025.08
2019-03-20T07:31:20.459Z,1025.14
2019-03-20T07:32:20.448Z,1025.15
2019-03-20T07:33:20.444Z,1025.21
2019-03-20T07:34:20.421Z,1025.23
2019-03-20T07:35:20.420Z,1025.24
2019-03-20T07:36:20.420Z,1025.19
2019-03-20T07:37:20.400Z,1025.20
2019-03-20T07:38:20.389Z,1025.17
2019-03-20T07:39:20.363Z,1025.20
2019-03-20T07:40:20.359Z,1025.16
2019-03-20T07:41:20.420Z,1025.11
2019-03-20T07:42:20.354Z,1025.16
2019-03-20T07:43:20.332Z,1025.16
2019-03-20T07:44:20.313Z,1025.19
2019-03-20T07:45:20.318Z,1025.17
2019-03-20T07:46:20.320Z,1025.11
2019-03-20T07:47:20.282Z,1025.10
2019-03-20T07:48:22.401Z,1025.13
2019-03-20T07:49:20.307Z,1025.01
2019-03-20T07:50:20.243Z,1025.10
2019-03-20T07:51:20.242Z,1025.04
2019-03-20T07:52:20.253Z,1025.07
2019-03-20T07:53:20.224Z,1025.06
2019-03-20T07:54:20.244Z,1025.17
2019-03-20T07:55:20.244Z,1025.18
2019-03-20T07:56:20.192Z,1025.20
2019-03-20T07:57:20.196Z,1025.23
2019-03-20T07:58:20.163Z,1025.19
2019-03-20T07:59:20.154Z,1025.23
2019-03-20T08:00:20.141Z,1025.27
2019-03-20T08:01:20.434Z,1025.19
2019-03-20T08:02:20.118Z,1025.24
2019-03-20T08:03:20.121Z,1025.26
2019-03-20T08:04:20.095Z,1025.25
2019-03-20T08:05:28.779Z,1025.27
2019-03-20T08:06:21.079Z,1025.30
2019-03-20T08:07:20.068Z,1025.32
2019-03-20T08:08:20.073Z,1025.37
2019-03-20T08:09:20.065Z,1025.39
2019-03-20T08:10:20.047Z,1025.29
2019-03-20T08:11:20.018Z,1025.33
2019-03-20T08:12:20.006Z,1025.33
2019-03-20T08:13:20.043Z,1025.31
2019-03-20T08:14:19.992Z,1025.36
2019-03-20T08:15:19.982Z,1025.36
2019-03-20T08:16:19.975Z,1025.50
2019-03-20T08:17:19.957Z,1025.49
2019-03-20T08:18:19.985Z,1025.44
2019-03-20T08:19:19.954Z,1025.40
2019-03-20T08:20:19.933Z,1025.44
2019-03-20T08:21:19.911Z,1025.39
2019-03-20T08:22:19.896Z,1025.37
2019-03-20T08:23:19.888Z,1025.38
2019-03-20T08:24:19.897Z,1025.45
2019-03-20T08:25:19.908Z,1025.43
2019-03-20T08:26:19.867Z,1025.41
2019-03-20T08:27:19.892Z,1025.40
2019-03-20T08:28:19.843Z,1025.45
2019-03-20T08:29:19.852Z,1025.46
2019-03-20T08:30:19.813Z,1025.45
2019-03-20T08:31:19.800Z,1025.43
2019-03-20T08:32:19.795Z,1025.42
2019-03-20T08:33:19.819Z,1025.48
2019-03-20T08:34:19.778Z,1025.44
2019-03-20T08:35:19.782Z,1025.46
2019-03-20T08:36:19.746Z,1025.43
2019-03-20T08:37:19.745Z,1025.44
2019-03-20T08:38:19.747Z,1025.51
2019-03-20T08:39:19.734Z,1025.55
2019-03-20T08:40:19.728Z,1025.56
2019-03-20T08:41:19.703Z,1025.57
2019-03-20T08:42:19.714Z,1025.60
2019-03-20T08:43:19.680Z,1025.51
2019-03-20T08:44:19.662Z,1025.55
2019-03-20T08:45:19.699Z,1025.54
2019-03-20T08:46:19.649Z,1025.48
2019-03-20T08:47:19.640Z,1025.52
2019-03-20T08:48:19.628Z,1025.52
2019-03-20T08:49:19.631Z,1025.50
2019-03-20T08:50:19.596Z,1025.57
2019-03-20T08:51:19.612Z,1025.60
2019-03-20T08:52:19.606Z,1025.56
2019-03-20T08:53:19.565Z,1025.56
2019-03-20T08:54:19.557Z,1025.49
2019-03-20T08:55:19.551Z,1025.44
2019-03-20T08:56:19.555Z,1025.52
2019-03-20T08:57:19.532Z,1025.59
2019-03-20T08:58:19.539Z,1025.49
2019-03-20T08:59:19.507Z,1025.55
2019-03-20T09:00:19.501Z,1025.48
2019-03-20T09:01:28.097Z,1025.46
2019-03-20T09:02:20.675Z,1025.54
2019-03-20T09:03:19.461Z,1025.47
2019-03-20T09:04:19.451Z,1025.50
2019-03-20T09:05:19.454Z,1025.59
2019-03-20T09:06:19.438Z,1025.56
2019-03-20T09:07:19.436Z,1025.63
2019-03-20T09:08:28.753Z,1025.68
2019-03-20T09:09:20.403Z,1025.65
2019-03-20T09:10:19.395Z,1025.69
2019-03-20T09:11:19.386Z,1025.71
2019-03-20T09:12:19.377Z,1025.73
2019-03-20T09:13:19.376Z,1025.75
2019-03-20T09:14:19.379Z,1025.67
2019-03-20T09:15:19.334Z,1025.69
2019-03-20T09:16:19.324Z,1025.79
2019-03-20T09:17:19.319Z,1025.87
2019-03-20T09:18:19.324Z,1025.86
2019-03-20T09:19:19.302Z,1025.87
2019-03-20T09:20:19.298Z,1025.86
2019-03-20T09:21:19.273Z,1025.85
2019-03-20T09:22:19.259Z,1025.87
2019-03-20T09:23:19.280Z,1025.96
2019-03-20T09:24:20.199Z,1025.82
2019-03-20T09:25:19.228Z,1025.83
2019-03-20T09:26:19.224Z,1025.89
2019-03-20T09:27:19.246Z,1025.88
2019-03-20T09:28:19.225Z,1025.84
2019-03-20T09:29:19.205Z,1025.78
2019-03-20T09:30:19.181Z,1025.84
2019-03-20T09:31:19.236Z,1025.97
2019-03-20T09:32:19.160Z,1025.98
2019-03-20T09:33:19.176Z,1025.93
2019-03-20T09:34:19.133Z,1025.93
2019-03-20T09:35:19.130Z,1025.95
2019-03-20T09:36:19.113Z,1026.02
2019-03-20T09:37:19.113Z,1026.03
2019-03-20T09:38:19.115Z,1025.91
2019-03-20T09:39:19.082Z,1025.89
2019-03-20T09:40:19.070Z,1025.91
2019-03-20T09:41:19.070Z,1025.92
2019-03-20T09:42:19.059Z,1026.00
2019-03-20T09:43:19.064Z,1026.04
2019-03-20T09:44:19.032Z,1026.05
2019-03-20T09:45:19.023Z,1026.03
2019-03-20T09:46:19.014Z,1025.97
2019-03-20T09:47:19.002Z,1025.97
2019-03-20T09:48:19.010Z,1025.92
2019-03-20T09:49:18.996Z,1025.94
2019-03-20T09:50:19.003Z,1026.01
2019-03-20T09:51:18.962Z,1025.88
2019-03-20T09:52:18.955Z,1025.93
2019-03-20T09:53:18.941Z,1025.85
2019-03-20T09:54:18.929Z,1025.84
2019-03-20T09:55:18.924Z,1025.98
2019-03-20T09:56:18.930Z,1026.02
2019-03-20T09:57:18.896Z,1025.94
2019-03-20T09:58:18.884Z,1025.96
2019-03-20T09:59:18.874Z,1025.93
2019-03-20T10:00:18.879Z,1026.03
2019-03-20T10:01:18.886Z,1025.92
2019-03-20T10:02:18.846Z,1025.90
2019-03-20T10:03:18.841Z,1025.92
2019-03-20T10:04:18.828Z,1025.84
2019-03-20T10:05:18.813Z,1025.89
2019-03-20T10:06:18.845Z,1025.92
2019-03-20T10:07:18.806Z,1025.87
2019-03-20T10:08:18.780Z,1025.86
2019-03-20T10:09:18.803Z,1025.89
2019-03-20T10:10:18.764Z,1025.96
2019-03-20T10:11:18.790Z,1025.85
2019-03-20T10:12:18.758Z,1025.84
2019-03-20T10:13:18.754Z,1025.85
2019-03-20T10:14:18.722Z,1025.91
2019-03-20T10:15:18.718Z,1025.87
2019-03-20T10:16:18.726Z,1025.86
2019-03-20T10:17:18.704Z,1025.84
2019-03-20T10:18:18.681Z,1025.95
2019-03-20T10:19:18.665Z,1025.89
2019-03-20T10:20:18.654Z,1025.91
2019-03-20T10:21:18.653Z,1025.91
2019-03-20T10:22:18.672Z,1025.93
2019-03-20T10:23:18.630Z,1025.92
2019-03-20T10:24:18.635Z,1025.85
2019-03-20T10:25:18.614Z,1025.81
2019-03-20T10:26:18.593Z,1025.81
2019-03-20T10:27:18.586Z,1025.90
2019-03-20T10:28:18.595Z,1025.83
2019-03-20T10:29:18.563Z,1025.84
2019-03-20T10:30:18.557Z,1025.81
2019-03-20T10:31:18.538Z,1025.86
2019-03-20T10:32:18.531Z,1025.90
2019-03-20T10:33:18.553Z,1025.81
2019-03-20T10:34:18.517Z,1025.84
2019-03-20T10:35:18.503Z,1025.75
2019-03-20T10:36:18.506Z,1025.72
2019-03-20T10:37:18.479Z,1025.68
2019-03-20T10:38:18.498Z,1025.67
2019-03-20T10:39:18.458Z,1025.68
2019-03-20T10:40:18.447Z,1025.65
2019-03-20T10:41:18.462Z,1025.69
2019-03-20T10:42:18.446Z,1025.74
2019-03-20T10:43:18.417Z,1025.81
2019-03-20T10:44:18.430Z,1025.74
2019-03-20T10:45:18.401Z,1025.81
2019-03-20T10:46:18.391Z,1025.82
2019-03-20T10:47:18.386Z,1025.78
2019-03-20T10:48:18.388Z,1025.85
2019-03-20T10:49:18.401Z,1025.88
2019-03-20T10:50:18.393Z,1025.88
2019-03-20T10:51:18.339Z,1025.91
2019-03-20T10:52:18.327Z,1025.96
2019-03-20T10:53:18.325Z,1025.92
2019-03-20T10:54:18.329Z,1025.96
2019-03-20T10:55:18.300Z,1025.98
2019-03-20T10:56:18.295Z,1025.94
2019-03-20T10:57:18.274Z,1025.95
2019-03-20T10:58:18.263Z,1025.93
2019-03-20T10:59:18.281Z,1025.95
2019-03-20T11:00:18.286Z,1025.95
2019-03-20T11:01:18.237Z,1025.87
2019-03-20T11:02:18.239Z,1025.66
2019-03-20T11:03:18.210Z,1025.30
2019-03-20T11:04:18.231Z,1025.38
2019-03-20T11:05:18.197Z,1025.28
2019-03-20T11:06:18.185Z,1025.28
2019-03-20T11:07:18.188Z,1025.55
2019-03-20T11:08:18.168Z,1025.52
2019-03-20T11:09:18.824Z,1025.66
2019-03-20T11:10:18.138Z,1025.67
2019-03-20T11:11:26.527Z,1025.74
2019-03-20T11:12:19.138Z,1025.74
2019-03-20T11:13:18.124Z,1025.62
2019-03-20T11:14:18.105Z,1025.60
2019-03-20T11:15:18.113Z,1025.73
2019-03-20T11:16:18.101Z,1025.53
2019-03-20T11:17:18.070Z,1025.65
2019-03-20T11:18:18.060Z,1025.27
2019-03-20T11:19:18.050Z,1025.41
2019-03-20T11:20:18.052Z,1025.73
2019-03-20T11:21:18.048Z,1025.36
2019-03-20T11:22:19.175Z,1025.21
2019-03-20T11:23:18.006Z,1025.30
2019-03-20T11:24:17.992Z,1025.72
2019-03-20T11:25:17.989Z,1025.80
2019-03-20T11:26:17.997Z,1025.36
2019-03-20T11:27:17.965Z,1025.29
2019-03-20T11:28:17.971Z,1025.27
2019-03-20T11:29:21.639Z,1025.29
2019-03-20T11:30:18.046Z,1025.22
2019-03-20T11:31:17.945Z,1025.20
2019-03-20T11:32:17.917Z,1025.19
2019-03-20T11:33:17.902Z,1025.24
2019-03-20T11:34:17.884Z,1025.22
2019-03-20T11:35:17.876Z,1025.34
2019-03-20T11:36:17.887Z,1025.23
2019-03-20T11:37:17.865Z,1025.51
2019-03-20T11:38:17.850Z,1025.58
2019-03-20T11:39:28.995Z,1025.41
2019-03-20T11:40:18.829Z,1025.32
2019-03-20T11:41:17.831Z,1025.36
2019-03-20T11:42:17.804Z,1025.49
2019-03-20T11:43:17.795Z,1025.42
2019-03-20T11:44:17.796Z,1025.20
2019-03-20T11:45:17.775Z,1025.08
2019-03-20T11:46:17.772Z,1025.09
2019-03-20T11:47:17.747Z,1025.28
2019-03-20T11:48:17.736Z,1025.45
2019-03-20T11:49:18.793Z,1025.14
2019-03-20T11:50:17.720Z,1025.13
2019-03-20T11:51:17.711Z,1025.31
2019-03-20T11:52:17.718Z,1025.27
2019-03-20T11:53:17.686Z,1025.37
2019-03-20T11:54:17.689Z,1025.45
2019-03-20T11:55:17.681Z,1025.46
2019-03-20T11:56:17.668Z,1025.37
2019-03-20T11:57:17.683Z,1025.12
2019-03-20T11:58:17.644Z,1025.08
2019-03-20T11:59:17.624Z,1025.31
2019-03-20T12:00:18.237Z,1025.28
2019-03-20T12:01:17.606Z,1025.29
2019-03-20T12:02:27.730Z,1025.39
2019-03-20T12:03:18.603Z,1025.26
2019-03-20T12:04:17.570Z,1025.11
2019-03-20T12:05:17.558Z,1025.19
2019-03-20T12:06:17.545Z,1025.16
2019-03-20T12:07:17.541Z,1025.16
2019-03-20T12:08:17.545Z,1025.15
2019-03-20T12:09:17.548Z,1025.17
2019-03-20T12:10:17.510Z,1025.15
2019-03-20T12:11:17.505Z,1025.14
2019-03-20T12:12:17.488Z,1025.13
2019-03-20T12:13:17.534Z,1025.06
2019-03-20T12:14:17.463Z,1025.15
2019-03-20T12:15:17.457Z,1025.04
2019-03-20T12:16:17.447Z,1025.03
2019-03-20T12:17:20.086Z,1024.93
2019-03-20T12:18:17.437Z,1025.12
2019-03-20T12:19:17.425Z,1025.11
2019-03-20T12:20:17.403Z,1024.95
2019-03-20T12:21:17.395Z,1025.08
2019-03-20T12:22:17.383Z,1025.00
2019-03-20T12:23:17.367Z,1024.76
2019-03-20T12:24:17.386Z,1024.94
2019-03-20T12:25:17.351Z,1025.11
2019-03-20T12:26:17.330Z,1025.13
2019-03-20T12:27:17.318Z,1025.16
2019-03-20T12:28:17.308Z,1025.19
2019-03-20T12:29:17.304Z,1025.13
2019-03-20T12:30:17.314Z,1025.29
2019-03-20T12:31:17.320Z,1025.21
2019-03-20T12:32:17.275Z,1025.18
2019-03-20T12:33:17.263Z,1025.26
2019-03-20T12:34:17.248Z,1025.26
2019-03-20T12:35:17.282Z,1025.28
2019-03-20T12:36:17.239Z,1025.27
2019-03-20T12:37:17.217Z,1025.33
2019-03-20T12:38:17.209Z,1025.02
2019-03-20T12:39:17.213Z,1024.98
2019-03-20T12:40:17.209Z,1025.01
2019-03-20T12:41:17.179Z,1025.22
2019-03-20T12:42:17.176Z,1025.36
2019-03-20T12:43:17.155Z,1024.95
2019-03-20T12:44:17.149Z,1025.11
2019-03-20T12:45:17.131Z,1025.18
2019-03-20T12:46:17.146Z,1024.94
2019-03-20T12:47:17.117Z,1025.04
2019-03-20T12:48:17.108Z,1025.17
2019-03-20T12:49:17.095Z,1025.17
2019-03-20T12:50:17.100Z,1025.13
2019-03-20T12:51:17.092Z,1025.09
2019-03-20T12:52:17.057Z,1025.07
2019-03-20T12:53:17.055Z,1024.78
2019-03-20T12:54:17.066Z,1024.91
2019-03-20T12:55:17.083Z,1024.98
2019-03-20T12:56:17.070Z,1024.72
2019-03-20T12:57:17.022Z,1024.96
2019-03-20T12:58:16.997Z,1024.99
2019-03-20T12:59:16.994Z,1024.94
2019-03-20T13:00:16.973Z,1024.99
2019-03-20T13:01:16.985Z,1024.77
2019-03-20T13:02:16.957Z,1024.97
2019-03-20T13:03:16.951Z,1024.98
2019-03-20T13:04:16.942Z,1024.99
2019-03-20T13:05:16.936Z,1025.00
2019-03-20T13:06:16.945Z,1025.01
2019-03-20T13:07:16.949Z,1025.06
2019-03-20T13:08:16.895Z,1025.00
2019-03-20T13:09:16.890Z,1025.06
2019-03-20T13:10:16.874Z,1025.07
2019-03-20T13:11:16.879Z,1024.77
2019-03-20T13:12:16.873Z,1024.91
2019-03-20T13:13:16.974Z,1024.93
2019-03-20T13:14:16.830Z,1024.89
2019-03-20T13:15:16.826Z,1024.73
2019-03-20T13:16:16.813Z,1024.61
2019-03-20T13:17:16.793Z,1024.63
2019-03-20T13:18:17.355Z,1024.92
2019-03-20T13:19:16.785Z,1024.89
2019-03-20T13:20:16.775Z,1024.94
2019-03-20T13:21:16.788Z,1024.91
2019-03-20T13:22:16.753Z,1024.97
2019-03-20T13:23:16.771Z,1024.64
2019-03-20T13:24:16.728Z,1025.00
2019-03-20T13:25:16.735Z,1024.71
2019-03-20T13:26:16.711Z,1024.52
2019-03-20T13:27:16.692Z,1024.60
2019-03-20T13:28:16.748Z,1024.84
2019-03-20T13:29:16.715Z,1024.84
2019-03-20T13:30:20.420Z,1024.94
2019-03-20T13:31:16.652Z,1024.58
2019-03-20T13:32:16.658Z,1024.56
2019-03-20T13:33:25.295Z,1024.93
2019-03-20T13:34:17.623Z,1024.50
2019-03-20T13:35:16.615Z,1024.90
2019-03-20T13:36:16.634Z,1024.92
2019-03-20T13:37:16.641Z,1024.92
2019-03-20T13:38:16.607Z,1024.99
2019-03-20T13:39:16.593Z,1024.91
2019-03-20T13:40:16.562Z,1024.55
2019-03-20T13:41:16.554Z,1024.58
2019-03-20T13:42:16.533Z,1024.54
2019-03-20T13:43:16.555Z,1024.48
2019-03-20T13:44:16.539Z,1024.51
2019-03-20T13:45:16.505Z,1024.46
2019-03-20T13:46:16.522Z,1024.43
2019-03-20T13:47:16.566Z,1024.86
2019-03-20T13:48:16.477Z,1024.59
2019-03-20T13:49:16.510Z,1024.43
2019-03-20T13:50:16.468Z,1024.56
2019-03-20T13:51:16.457Z,1024.77
2019-03-20T13:52:16.456Z,1024.71
2019-03-20T13:53:16.460Z,1024.75
2019-03-20T13:54:16.420Z,1024.76
2019-03-20T13:55:16.431Z,1024.76
2019-03-20T13:56:16.407Z,1024.35
2019-03-20T13:57:16.394Z,1024.33
2019-03-20T13:58:16.373Z,1024.41
2019-03-20T13:59:16.396Z,1024.40
2019-03-20T14:00:16.346Z,1024.80
2019-03-20T14:01:16.350Z,1024.39
2019-03-20T14:02:16.334Z,1024.72
2019-03-20T14:03:16.320Z,1024.46
2019-03-20T14:04:16.340Z,1024.42
2019-03-20T14:05:16.293Z,1024.44
2019-03-20T14:06:16.311Z,1024.61
2019-03-20T14:07:16.279Z,1024.46
2019-03-20T14:08:16.269Z,1024.78
2019-03-20T14:09:16.250Z,1024.73
2019-03-20T14:10:24.630Z,1024.60
2019-03-20T14:11:17.281Z,1024.47
2019-03-20T14:12:16.221Z,1024.46
2019-03-20T14:13:16.205Z,1024.53
2019-03-20T14:14:16.190Z,1024.64
2019-03-20T14:15:16.181Z,1024.65
2019-03-20T14:16:16.170Z,1024.63
2019-03-20T14:17:16.195Z,1024.66
2019-03-20T14:18:16.153Z,1024.63
2019-03-20T14:19:16.155Z,1024.64
2019-03-20T14:20:16.154Z,1024.78
2019-03-20T14:21:16.149Z,1024.77
2019-03-20T14:22:16.110Z,1024.69
2019-03-20T14:23:16.119Z,1024.75
2019-03-20T14:24:16.096Z,1024.79
2019-03-20T14:25:16.089Z,1024.84
2019-03-20T14:26:16.178Z,1024.77
2019-03-20T14:27:16.207Z,1024.65
2019-03-20T14:28:16.106Z,1024.59
2019-03-20T14:29:16.039Z,1024.72
2019-03-20T14:30:16.081Z,1024.69
2019-03-20T14:31:16.156Z,1024.57
2019-03-20T14:32:16.013Z,1024.67
2019-03-20T14:33:16.007Z,1024.63
2019-03-20T14:34:15.990Z,1024.65
2019-03-20T14:35:15.980Z,1024.63
2019-03-20T14:36:16.006Z,1024.61
2019-03-20T14:37:15.963Z,1024.58
2019-03-20T14:38:15.981Z,1024.66
2019-03-20T14:39:15.984Z,1024.66
2019-03-20T14:40:15.928Z,1024.44
2019-03-20T14:41:21.414Z,1024.46
2019-03-20T14:42:16.908Z,1024.34
2019-03-20T14:43:15.994Z,1024.48
2019-03-20T14:44:15.885Z,1024.41
2019-03-20T14:45:15.865Z,1024.40
2019-03-20T14:46:15.888Z,1024.40
2019-03-20T14:47:15.844Z,1024.40
2019-03-20T14:48:15.857Z,1024.39
2019-03-20T14:49:15.825Z,1024.38
2019-03-20T14:50:15.826Z,1024.38
2019-03-20T14:51:15.824Z,1024.42
2019-03-20T14:52:15.813Z,1024.54
2019-03-20T14:53:15.815Z,1024.52
2019-03-20T14:54:15.775Z,1024.33
2019-03-20T14:55:15.761Z,1024.24
2019-03-20T14:56:18.112Z,1024.23
2019-03-20T14:57:15.726Z,1024.22
2019-03-20T14:58:15.740Z,1024.27
2019-03-20T14:59:15.733Z,1024.30
2019-03-20T15:00:15.709Z,1024.37
2019-03-20T15:01:15.693Z,1024.35
2019-03-20T15:02:15.690Z,1024.32
2019-03-20T15:03:15.675Z,1024.38
2019-03-20T15:04:15.692Z,1024.37
2019-03-20T15:05:15.661Z,1024.31
2019-03-20T15:06:15.650Z,1024.29
2019-03-20T15:07:15.655Z,1024.28
2019-03-20T15:08:15.619Z,1024.30
2019-03-20T15:09:15.657Z,1024.23
2019-03-20T15:10:15.597Z,1024.23
2019-03-20T15:11:15.605Z,1024.15
2019-03-20T15:12:15.580Z,1024.23
2019-03-20T15:13:15.572Z,1024.19
2019-03-20T15:14:15.576Z,1024.32
2019-03-20T15:15:15.558Z,1024.27
2019-03-20T15:16:15.587Z,1024.27
2019-03-20T15:17:15.523Z,1024.21
2019-03-20T15:18:15.561Z,1024.24
2019-03-20T15:19:15.530Z,1024.24
2019-03-20T15:20:15.514Z,1024.22
2019-03-20T15:21:15.493Z,1024.21
2019-03-20T15:22:15.459Z,1024.26
2019-03-20T15:23:15.454Z,1024.19
2019-03-20T15:24:15.456Z,1024.24
2019-03-20T15:25:15.443Z,1024.21
2019-03-20T15:26:15.466Z,1024.20
2019-03-20T15:27:15.416Z,1024.21
2019-03-20T15:28:15.401Z,1024.15
2019-03-20T15:29:15.407Z,1024.13
2019-03-20T15:30:15.401Z,1024.08
2019-03-20T15:31:15.403Z,1024.13
2019-03-20T15:32:15.361Z,1024.07
2019-03-20T15:33:15.355Z,1024.09
2019-03-20T15:34:15.347Z,1024.04
2019-03-20T15:35:15.377Z,1024.01
2019-03-20T15:36:15.351Z,1024.06
2019-03-20T15:37:15.308Z,1024.01
2019-03-20T15:38:15.315Z,1024.06
2019-03-20T15:39:15.343Z,1024.04
2019-03-20T15:40:15.290Z,1024.10
2019-03-20T15:41:15.284Z,1024.15
2019-03-20T15:42:15.269Z,1024.13
2019-03-20T15:43:15.238Z,1024.07
2019-03-20T15:44:15.240Z,1024.12
2019-03-20T15:45:15.223Z,1024.05
2019-03-20T15:46:15.244Z,1023.99
2019-03-20T15:47:15.223Z,1023.98
2019-03-20T15:48:15.205Z,1023.99
2019-03-20T15:49:15.184Z,1024.02
2019-03-20T15:50:15.168Z,1023.95
2019-03-20T15:51:15.157Z,1023.91
2019-03-20T15:52:15.175Z,1023.97
2019-03-20T15:53:15.139Z,1023.91
2019-03-20T15:54:15.136Z,1023.93
2019-03-20T15:55:15.112Z,1023.94
2019-03-20T15:56:15.117Z,1024.04
2019-03-20T15:57:15.095Z,1024.03
2019-03-20T15:58:15.108Z,1024.04
2019-03-20T15:59:15.079Z,1024.03
2019-03-20T16:00:15.091Z,1024.03
2019-03-20T16:01:15.052Z,1024.09
2019-03-20T16:02:15.083Z,1024.11
2019-03-20T16:03:15.075Z,1024.07
2019-03-20T16:04:15.039Z,1024.05
2019-03-20T16:05:15.007Z,1024.11
2019-03-20T16:06:15.020Z,1024.08
2019-03-20T16:07:14.986Z,1024.03
2019-03-20T16:08:14.984Z,1024.09
2019-03-20T16:09:14.970Z,1023.95
2019-03-20T16:10:14.955Z,1024.04
2019-03-20T16:11:14.955Z,1024.02
2019-03-20T16:12:14.962Z,1023.99
2019-03-20T16:13:14.938Z,1024.01
2019-03-20T16:14:14.904Z,1024.02
2019-03-20T16:15:14.918Z,1024.07
2019-03-20T16:16:14.909Z,1024.08
2019-03-20T16:17:14.890Z,1024.16
2019-03-20T16:18:14.907Z,1024.15
2019-03-20T16:19:14.850Z,1024.10
2019-03-20T16:20:14.846Z,1024.19
2019-03-20T16:21:14.833Z,1024.15
2019-03-20T16:22:14.829Z,1024.20
2019-03-20T16:23:14.825Z,1024.20
2019-03-20T16:24:14.836Z,1024.16
2019-03-20T16:25:14.787Z,1024.10
2019-03-20T16:26:14.807Z,1024.25
2019-03-20T16:27:14.765Z,1024.25
2019-03-20T16:28:14.757Z,1024.26
2019-03-20T16:29:14.758Z,1024.19
2019-03-20T16:30:14.779Z,1024.24
2019-03-20T16:31:14.731Z,1024.20
2019-03-20T16:32:14.725Z,1024.16
2019-03-20T16:33:14.704Z,1024.13
2019-03-20T16:34:14.694Z,1024.15
2019-03-20T16:35:14.717Z,1024.12
2019-03-20T16:36:14.686Z,1024.14
2019-03-20T16:37:14.661Z,1024.19
2019-03-20T16:38:14.681Z,1024.16
2019-03-20T16:39:14.640Z,1024.17
2019-03-20T16:40:14.660Z,1024.25
2019-03-20T16:41:16.934Z,1024.25
2019-03-20T16:42:14.606Z,1024.27
2019-03-20T16:43:14.600Z,1024.31
2019-03-20T16:44:14.607Z,1024.27
2019-03-20T16:45:14.627Z,1024.22
2019-03-20T16:46:14.602Z,1024.28
2019-03-20T16:47:14.547Z,1024.26
2019-03-20T16:48:14.534Z,1024.24
2019-03-20T16:49:14.532Z,1024.23
2019-03-20T16:50:14.525Z,1024.16
2019-03-20T16:51:14.563Z,1024.22
2019-03-20T16:52:15.696Z,1024.17
2019-03-20T16:53:14.486Z,1024.24
2019-03-20T16:54:14.475Z,1024.31
2019-03-20T16:55:14.476Z,1024.27
2019-03-20T16:56:14.492Z,1024.27
2019-03-20T16:57:14.446Z,1024.29
2019-03-20T16:58:14.429Z,1024.28
2019-03-20T16:59:14.409Z,1024.39
2019-03-20T17:00:14.409Z,1024.38
2019-03-20T17:01:14.398Z,1024.49
2019-03-20T17:02:14.424Z,1024.48
2019-03-20T17:03:14.379Z,1024.47
2019-03-20T17:04:14.366Z,1024.53
2019-03-20T17:05:14.356Z,1024.50
2019-03-20T17:06:14.359Z,1024.51
2019-03-20T17:07:14.360Z,1024.57
2019-03-20T17:08:14.331Z,1024.54
2019-03-20T17:09:14.304Z,1024.53
2019-03-20T17:10:14.291Z,1024.53
2019-03-20T17:11:14.285Z,1024.58
2019-03-20T17:12:14.438Z,1024.60
2019-03-20T17:13:14.272Z,1024.56
2019-03-20T17:14:14.260Z,1024.50
2019-03-20T17:15:14.244Z,1024.55
2019-03-20T17:16:14.233Z,1024.53
2019-03-20T17:17:14.236Z,1024.47
2019-03-20T17:18:14.229Z,1024.51
2019-03-20T17:19:14.196Z,1024.57
2019-03-20T17:20:14.199Z,1024.49
2019-03-20T17:21:14.185Z,1024.50
2019-03-20T17:22:14.172Z,1024.49
2019-03-20T17:23:14.176Z,1024.52
2019-03-20T17:24:14.143Z,1024.48
2019-03-20T17:25:14.151Z,1024.42
2019-03-20T17:26:14.132Z,1024.48
2019-03-20T17:27:14.119Z,1024.52
2019-03-20T17:28:14.127Z,1024.52
2019-03-20T17:29:14.100Z,1024.53
2019-03-20T17:30:14.087Z,1024.54
2019-03-20T17:31:14.080Z,1024.56
2019-03-20T17:32:14.068Z,1024.56
2019-03-20T17:33:14.082Z,1024.52
2019-03-20T17:34:14.414Z,1024.48
2019-03-20T17:35:14.041Z,1024.44
2019-03-20T17:36:14.031Z,1024.53
2019-03-20T17:37:14.013Z,1024.52
2019-03-20T17:38:13.994Z,1024.50
2019-03-20T17:39:14.048Z,1024.48
2019-03-20T17:40:14.005Z,1024.51
2019-03-20T17:41:13.976Z,1024.55
2019-03-20T17:42:13.965Z,1024.52
2019-03-20T17:43:13.955Z,1024.64
2019-03-20T17:44:13.937Z,1024.64
2019-03-20T17:45:13.969Z,1024.64
2019-03-20T17:46:13.955Z,1024.67
2019-03-20T17:47:13.915Z,1024.69
2019-03-20T17:48:13.899Z,1024.67
2019-03-20T17:49:13.885Z,1024.71
2019-03-20T17:50:13.866Z,1024.73
2019-03-20T17:51:13.880Z,1024.71
2019-03-20T17:52:13.850Z,1024.69
2019-03-20T17:53:13.839Z,1024.75
2019-03-20T17:54:13.828Z,1024.72
2019-03-20T17:55:13.845Z,1024.78
2019-03-20T17:56:13.803Z,1024.78
2019-03-20T17:57:13.803Z,1024.78
2019-03-20T17:58:13.815Z,1024.82
2019-03-20T17:59:13.779Z,1024.74
2019-03-20T18:00:13.765Z,1024.71
2019-03-20T18:01:13.767Z,1024.78
2019-03-20T18:02:23.466Z,1024.78
2019-03-20T18:03:14.730Z,1024.79
2019-03-20T18:04:13.719Z,1024.84
2019-03-20T18:05:13.725Z,1024.78
2019-03-20T18:06:13.896Z,1024.80
2019-03-20T18:07:13.718Z,1024.82
2019-03-20T18:08:13.679Z,1024.82
2019-03-20T18:09:13.674Z,1024.82
2019-03-20T18:10:13.726Z,1024.85
2019-03-20T18:11:13.705Z,1024.88
2019-03-20T18:12:13.647Z,1024.88
2019-03-20T18:13:13.624Z,1024.83
2019-03-20T18:14:13.617Z,1024.81
2019-03-20T18:15:13.611Z,1024.84
2019-03-20T18:16:13.629Z,1024.79
2019-03-20T18:17:13.587Z,1024.81
2019-03-20T18:18:13.589Z,1024.80
2019-03-20T18:19:14.575Z,1024.88
2019-03-20T18:20:13.559Z,1024.87
2019-03-20T18:21:13.573Z,1024.89
2019-03-20T18:22:13.569Z,1024.91
2019-03-20T18:23:14.418Z,1024.97
2019-03-20T18:24:13.522Z,1024.99
2019-03-20T18:25:13.507Z,1024.96
2019-03-20T18:26:13.532Z,1024.97
2019-03-20T18:27:13.476Z,1024.99
2019-03-20T18:28:13.465Z,1024.95
2019-03-20T18:29:13.461Z,1025.01
2019-03-20T18:30:13.474Z,1025.06
2019-03-20T18:31:13.468Z,1025.02
2019-03-20T18:32:13.932Z,1025.02
2019-03-20T18:33:13.427Z,1025.06
2019-03-20T18:34:13.414Z,1025.03
2019-03-20T18:35:13.411Z,1025.05
2019-03-20T18:36:13.386Z,1025.03
2019-03-20T18:37:13.385Z,1024.98
2019-03-20T18:38:13.386Z,1025.00
2019-03-20T18:39:13.381Z,1025.08
2019-03-20T18:40:13.348Z,1025.04
2019-03-20T18:41:13.339Z,1025.12
2019-03-20T18:42:13.339Z,1025.05
2019-03-20T18:43:13.344Z,1025.09
2019-03-20T18:44:13.316Z,1025.04
2019-03-20T18:45:13.298Z,1025.04
2019-03-20T18:46:13.280Z,1025.06
2019-03-20T18:47:13.296Z,1025.01
2019-03-20T18:48:13.267Z,1025.04
2019-03-20T18:49:13.302Z,1025.05
2019-03-20T18:50:13.255Z,1025.07
2019-03-20T18:51:13.239Z,1025.02
2019-03-20T18:52:13.222Z,1025.08
2019-03-20T18:53:13.248Z,1025.06
2019-03-20T18:54:13.192Z,1025.02
2019-03-20T18:55:13.186Z,1025.07
2019-03-20T18:56:14.165Z,1025.08
2019-03-20T18:57:13.162Z,1025.07
2019-03-20T18:58:13.203Z,1025.06
2019-03-20T18:59:13.140Z,1025.19
2019-03-20T19:00:13.132Z,1025.13
2019-03-20T19:01:13.124Z,1025.10
2019-03-20T19:02:13.120Z,1025.14
2019-03-20T19:03:13.133Z,1025.15
2019-03-20T19:04:13.104Z,1025.15
2019-03-20T19:05:13.102Z,1025.14
2019-03-20T19:06:14.443Z,1025.12
2019-03-20T19:07:13.056Z,1025.07
2019-03-20T19:08:13.062Z,1025.09
2019-03-20T19:09:13.838Z,1025.14
2019-03-20T19:10:13.312Z,1025.08
2019-03-20T19:11:13.918Z,1025.06
2019-03-20T19:12:13.509Z,1025.10
2019-03-20T19:13:13.864Z,1025.06
2019-03-20T19:14:15.671Z,1025.20
2019-03-20T19:15:13.766Z,1025.16
2019-03-20T19:16:14.536Z,1025.12
2019-03-20T19:17:13.706Z,1025.29
2019-03-20T19:18:13.519Z,1025.15
2019-03-20T19:19:13.225Z,1025.17
2019-03-20T19:20:12.932Z,1025.20
2019-03-20T19:21:12.946Z,1025.11
2019-03-20T19:22:12.896Z,1025.13
2019-03-20T19:23:12.886Z,1025.24
2019-03-20T19:24:12.885Z,1025.18
2019-03-20T19:25:12.905Z,1025.14
2019-03-20T19:26:12.850Z,1025.10
2019-03-20T19:27:12.848Z,1025.19
2019-03-20T19:28:12.835Z,1025.11
2019-03-20T19:29:12.823Z,1025.09
2019-03-20T19:30:12.813Z,1025.09
2019-03-20T19:31:12.845Z,1025.09
2019-03-20T19:32:12.790Z,1025.15